createdAt,value
2019-03-27T00:00:07.873Z,86.85
2019-03-27T00:01:07.962Z,86.94
2019-03-27T00:02:08.053Z,86.76
2019-03-27T00:03:08.142Z,86.66
2019-03-27T00:04:08.232Z,86.94
2019-03-27T00:05:08.321Z,86.43
2019-03-27T00:06:08.410Z,86.47
2019-03-27T00:07:08.542Z,86.85
2019-03-27T00:08:08.582Z,86.71
2019-03-27T00:09:08.666Z,85.76
2019-03-27T00:10:08.760Z,86.05
2019-03-27T00:11:08.841Z,86.52
2019-03-27T00:12:08.933Z,86.61
2019-03-27T00:13:09.021Z,86.33
2019-03-27T00:14:09.109Z,86.90
2019-03-27T00:15:12.976Z,87.09
2019-03-27T00:16:09.290Z,87.57
2019-03-27T00:17:09.384Z,87.76
2019-03-27T00:18:09.486Z,87.38
2019-03-27T00:19:09.550Z,87.47
2019-03-27T00:20:09.641Z,87.85
2019-03-27T00:21:09.729Z,88.04
2019-03-27T00:22:09.819Z,88.23
2019-03-27T00:23:09.908Z,88.71
2019-03-27T00:24:09.998Z,89.04
2019-03-27T00:25:10.095Z,88.95
2019-03-27T00:26:10.178Z,89.18
2019-03-27T00:27:10.268Z,89.28
2019-03-27T00:28:10.360Z,89.00
2019-03-27T00:29:10.450Z,88.80
2019-03-27T00:30:10.542Z,89.00
2019-03-27T00:31:12.020Z,89.28
2019-03-27T00:32:10.708Z,89.00
2019-03-27T00:33:10.800Z,89.28
2019-03-27T00:34:10.891Z,89.56
2019-03-27T00:35:10.982Z,89.18
2019-03-27T00:36:11.073Z,88.90
2019-03-27T00:37:11.161Z,88.80
2019-03-27T00:38:11.252Z,88.52
2019-03-27T00:39:11.345Z,88.33
2019-03-27T00:40:11.429Z,88.13
2019-03-27T00:41:11.515Z,88.23
2019-03-27T00:42:11.602Z,88.23
2019-03-27T00:43:11.691Z,88.04
2019-03-27T00:44:11.780Z,88.04
2019-03-27T00:45:25.453Z,87.85
2019-03-27T00:46:11.962Z,88.04
2019-03-27T00:47:12.049Z,87.95
2019-03-27T00:48:12.138Z,88.23
2019-03-27T00:49:12.228Z,88.13
2019-03-27T00:50:12.322Z,88.13
2019-03-27T00:51:12.406Z,88.04
2019-03-27T00:52:12.496Z,88.13
2019-03-27T00:53:12.591Z,88.04
2019-03-27T00:54:12.695Z,88.23
2019-03-27T00:55:12.787Z,88.23
2019-03-27T00:56:12.875Z,88.04
2019-03-27T00:57:12.965Z,88.23
2019-03-27T00:58:13.058Z,88.13
2019-03-27T00:59:13.145Z,88.13
2019-03-27T01:00:13.235Z,88.23
2019-03-27T01:01:13.320Z,88.42
2019-03-27T01:02:13.407Z,88.42
2019-03-27T01:03:13.497Z,88.13
2019-03-27T01:04:13.585Z,88.13
2019-03-27T01:05:13.676Z,88.23
2019-03-27T01:06:13.767Z,88.23
2019-03-27T01:07:13.895Z,88.61
2019-03-27T01:08:13.938Z,88.61
2019-03-27T01:09:14.021Z,88.52
2019-03-27T01:10:14.113Z,88.52
2019-03-27T01:11:14.201Z,88.13
2019-03-27T01:12:14.291Z,88.13
2019-03-27T01:13:14.379Z,88.04
2019-03-27T01:14:14.474Z,88.13
2019-03-27T01:15:14.563Z,88.23
2019-03-27T01:16:14.652Z,88.13
2019-03-27T01:17:14.743Z,87.85
2019-03-27T01:18:14.833Z,88.23
2019-03-27T01:19:14.919Z,88.04
2019-03-27T01:20:15.012Z,87.57
2019-03-27T01:21:15.099Z,87.85
2019-03-27T01:22:15.189Z,88.13
2019-03-27T01:23:15.279Z,88.42
2019-03-27T01:24:15.369Z,88.80
2019-03-27T01:25:15.453Z,88.42
2019-03-27T01:26:15.548Z,88.80
2019-03-27T01:27:15.636Z,88.71
2019-03-27T01:28:15.726Z,88.71
2019-03-27T01:29:15.815Z,88.57
2019-03-27T01:30:15.908Z,89.47
2019-03-27T01:31:15.993Z,89.47
2019-03-27T01:32:16.086Z,89.28
2019-03-27T01:33:16.174Z,89.28
2019-03-27T01:34:16.265Z,88.71
2019-03-27T01:35:16.353Z,88.80
2019-03-27T01:36:16.438Z,88.28
2019-03-27T01:37:16.541Z,89.04
2019-03-27T01:38:16.628Z,89.14
2019-03-27T01:39:16.719Z,89.04
2019-03-27T01:40:16.808Z,88.85
2019-03-27T01:41:16.898Z,89.28
2019-03-27T01:42:17.017Z,88.95
2019-03-27T01:43:17.111Z,89.09
2019-03-27T01:44:17.195Z,89.18
2019-03-27T01:45:17.332Z,88.80
2019-03-27T01:46:17.369Z,89.09
2019-03-27T01:47:17.458Z,89.28
2019-03-27T01:48:17.547Z,89.00
2019-03-27T01:49:17.636Z,89.28
2019-03-27T01:50:17.724Z,89.28
2019-03-27T01:51:17.812Z,89.28
2019-03-27T01:52:17.896Z,89.28
2019-03-27T01:53:17.995Z,89.00
2019-03-27T01:54:18.082Z,89.18
2019-03-27T01:55:18.167Z,89.00
2019-03-27T01:56:18.255Z,88.80
2019-03-27T01:57:18.355Z,89.09
2019-03-27T01:58:18.444Z,89.28
2019-03-27T01:59:18.552Z,89.28
2019-03-27T02:00:18.623Z,89.18
2019-03-27T02:01:18.714Z,89.00
2019-03-27T02:02:18.804Z,89.09
2019-03-27T02:03:18.896Z,89.00
2019-03-27T02:04:18.982Z,89.14
2019-03-27T02:05:19.077Z,89.14
2019-03-27T02:06:19.165Z,89.14
2019-03-27T02:07:19.256Z,89.71
2019-03-27T02:08:19.346Z,89.90
2019-03-27T02:09:19.436Z,90.00
2019-03-27T02:10:19.530Z,90.09
2019-03-27T02:11:19.620Z,89.90
2019-03-27T02:12:19.705Z,89.80
2019-03-27T02:13:19.796Z,89.90
2019-03-27T02:14:19.886Z,89.61
2019-03-27T02:15:19.972Z,90.00
2019-03-27T02:16:20.061Z,90.09
2019-03-27T02:17:20.153Z,90.00
2019-03-27T02:18:20.242Z,89.61
2019-03-27T02:19:20.331Z,89.80
2019-03-27T02:20:20.416Z,90.00
2019-03-27T02:21:20.516Z,89.80
2019-03-27T02:22:20.621Z,90.42
2019-03-27T02:23:20.714Z,90.28
2019-03-27T02:24:20.802Z,90.42
2019-03-27T02:25:20.900Z,90.47
2019-03-27T02:26:20.991Z,90.37
2019-03-27T02:27:21.078Z,89.85
2019-03-27T02:28:21.171Z,90.52
2019-03-27T02:29:21.259Z,90.33
2019-03-27T02:30:21.360Z,89.71
2019-03-27T02:31:21.464Z,89.61
2019-03-27T02:32:21.536Z,90.47
2019-03-27T02:33:21.625Z,90.28
2019-03-27T02:34:21.711Z,90.09
2019-03-27T02:35:21.802Z,90.37
2019-03-27T02:36:21.892Z,90.56
2019-03-27T02:37:21.985Z,90.56
2019-03-27T02:38:22.074Z,90.37
2019-03-27T02:39:22.153Z,90.56
2019-03-27T02:40:22.256Z,90.56
2019-03-27T02:41:22.354Z,90.70
2019-03-27T02:42:22.437Z,90.47
2019-03-27T02:43:22.531Z,90.47
2019-03-27T02:44:22.611Z,90.42
2019-03-27T02:45:22.727Z,90.56
2019-03-27T02:46:24.904Z,90.28
2019-03-27T02:47:22.913Z,90.42
2019-03-27T02:48:22.998Z,90.47
2019-03-27T02:49:23.086Z,90.56
2019-03-27T02:50:23.172Z,90.66
2019-03-27T02:51:23.264Z,91.04
2019-03-27T02:52:23.356Z,91.04
2019-03-27T02:53:23.439Z,90.94
2019-03-27T02:54:23.519Z,90.94
2019-03-27T02:55:23.613Z,91.23
2019-03-27T02:56:23.705Z,91.33
2019-03-27T02:57:23.790Z,91.23
2019-03-27T02:58:23.879Z,91.42
2019-03-27T02:59:23.970Z,91.23
2019-03-27T03:00:24.054Z,91.89
2019-03-27T03:01:24.142Z,92.08
2019-03-27T03:02:24.246Z,91.71
2019-03-27T03:03:24.323Z,92.08
2019-03-27T03:04:24.413Z,92.27
2019-03-27T03:05:24.500Z,92.18
2019-03-27T03:06:24.576Z,91.80
2019-03-27T03:09:07.192Z,91.99
2019-03-27T03:10:07.279Z,91.80
2019-03-27T03:11:07.374Z,91.99
2019-03-27T03:12:07.460Z,91.99
2019-03-27T03:13:07.548Z,92.27
2019-03-27T03:14:07.637Z,92.18
2019-03-27T03:15:07.719Z,92.18
2019-03-27T03:16:07.805Z,92.18
2019-03-27T03:17:07.894Z,92.51
2019-03-27T03:18:07.983Z,92.71
2019-03-27T03:19:08.070Z,93.65
2019-03-27T03:20:08.158Z,94.32
2019-03-27T03:21:08.247Z,94.60
2019-03-27T03:22:08.339Z,95.27
2019-03-27T03:23:08.419Z,95.27
2019-03-27T03:24:08.536Z,95.75
2019-03-27T03:25:08.657Z,95.75
2019-03-27T03:26:08.734Z,95.65
2019-03-27T03:27:08.823Z,95.46
2019-03-27T03:28:08.913Z,95.46
2019-03-27T03:29:09.005Z,95.36
2019-03-27T03:30:09.089Z,95.36
2019-03-27T03:31:09.181Z,95.08
2019-03-27T03:32:09.281Z,94.89
2019-03-27T03:33:09.354Z,94.42
2019-03-27T03:34:09.481Z,94.51
2019-03-27T03:35:09.606Z,94.89
2019-03-27T03:36:09.678Z,95.36
2019-03-27T03:37:09.768Z,94.89
2019-03-27T03:38:09.859Z,94.13
2019-03-27T03:39:09.947Z,94.23
2019-03-27T03:40:10.037Z,93.84
2019-03-27T03:41:10.128Z,94.13
2019-03-27T03:42:10.217Z,94.51
2019-03-27T03:43:10.309Z,94.42
2019-03-27T03:44:10.395Z,94.89
2019-03-27T03:45:10.489Z,94.98
2019-03-27T03:46:10.564Z,94.89
2019-03-27T03:47:10.650Z,94.03
2019-03-27T03:48:10.737Z,94.13
2019-03-27T03:49:10.827Z,94.89
2019-03-27T03:50:10.916Z,95.08
2019-03-27T03:51:11.009Z,95.08
2019-03-27T03:52:11.094Z,94.70
2019-03-27T03:53:11.183Z,94.70
2019-03-27T03:54:11.269Z,94.51
2019-03-27T03:55:11.356Z,94.79
2019-03-27T03:56:11.444Z,94.89
2019-03-27T03:57:11.557Z,94.42
2019-03-27T03:58:11.617Z,94.79
2019-03-27T03:59:11.699Z,95.36
2019-03-27T04:00:11.798Z,95.55
2019-03-27T04:01:11.889Z,95.65
2019-03-27T04:02:11.981Z,95.94
2019-03-27T04:03:12.069Z,95.94
2019-03-27T04:04:12.155Z,96.12
2019-03-27T04:05:12.259Z,96.31
2019-03-27T04:06:12.333Z,96.22
2019-03-27T04:07:12.425Z,96.12
2019-03-27T04:08:12.536Z,95.94
2019-03-27T04:09:12.623Z,96.50
2019-03-27T04:10:12.688Z,96.12
2019-03-27T04:11:12.784Z,95.75
2019-03-27T04:12:12.872Z,95.36
2019-03-27T04:13:12.961Z,95.46
2019-03-27T04:14:13.049Z,95.27
2019-03-27T04:15:13.138Z,95.08
2019-03-27T04:16:13.228Z,94.51
2019-03-27T04:17:17.382Z,94.51
2019-03-27T04:18:13.408Z,94.70
2019-03-27T04:19:13.497Z,94.60
2019-03-27T04:20:13.595Z,94.51
2019-03-27T04:21:13.647Z,94.51
2019-03-27T04:22:13.741Z,94.89
2019-03-27T04:23:13.825Z,94.70
2019-03-27T04:24:13.916Z,94.79
2019-03-27T04:25:14.011Z,94.51
2019-03-27T04:26:14.093Z,94.32
2019-03-27T04:27:14.181Z,94.32
2019-03-27T04:28:14.271Z,94.32
2019-03-27T04:29:14.398Z,94.32
2019-03-27T04:30:14.503Z,94.23
2019-03-27T04:31:14.534Z,94.60
2019-03-27T04:32:14.623Z,94.23
2019-03-27T04:33:14.739Z,94.42
2019-03-27T04:34:14.801Z,94.60
2019-03-27T04:35:14.887Z,94.13
2019-03-27T04:36:14.976Z,94.98
2019-03-27T04:37:15.069Z,94.79
2019-03-27T04:38:15.156Z,94.70
2019-03-27T04:39:15.244Z,95.36
2019-03-27T04:40:15.336Z,95.12
2019-03-27T04:41:15.462Z,95.60
2019-03-27T04:42:15.522Z,95.98
2019-03-27T04:43:15.598Z,96.36
2019-03-27T04:45:58.215Z,96.03
2019-03-27T04:46:58.343Z,95.84
2019-03-27T04:47:58.400Z,95.55
2019-03-27T04:48:58.484Z,95.55
2019-03-27T04:49:58.575Z,95.46
2019-03-27T04:50:58.652Z,95.55
2019-03-27T04:51:58.749Z,95.08
2019-03-27T04:52:58.838Z,95.17
2019-03-27T04:53:58.925Z,95.36
2019-03-27T04:54:59.012Z,94.70
2019-03-27T04:55:59.100Z,94.70
2019-03-27T04:56:59.187Z,94.98
2019-03-27T04:57:59.277Z,94.89
2019-03-27T04:58:59.373Z,94.70
2019-03-27T04:59:59.462Z,94.98
2019-03-27T05:00:59.547Z,94.65
2019-03-27T05:01:59.632Z,94.32
2019-03-27T05:02:59.724Z,95.08
2019-03-27T05:03:59.814Z,94.98
2019-03-27T05:04:59.901Z,95.08
2019-03-27T05:05:59.997Z,95.36
2019-03-27T05:07:00.081Z,94.60
2019-03-27T05:08:00.172Z,94.42
2019-03-27T05:09:00.256Z,94.89
2019-03-27T05:10:00.366Z,94.70
2019-03-27T05:11:00.434Z,94.79
2019-03-27T05:12:00.558Z,94.98
2019-03-27T05:13:00.625Z,94.89
2019-03-27T05:14:00.700Z,95.08
2019-03-27T05:15:00.788Z,94.89
2019-03-27T05:16:00.878Z,94.89
2019-03-27T05:17:00.967Z,94.98
2019-03-27T05:18:01.055Z,94.89
2019-03-27T05:19:01.144Z,94.32
2019-03-27T05:20:01.233Z,94.32
2019-03-27T05:21:01.319Z,94.03
2019-03-27T05:22:01.405Z,93.27
2019-03-27T05:23:01.503Z,93.37
2019-03-27T05:24:01.579Z,93.46
2019-03-27T05:25:01.665Z,93.56
2019-03-27T05:26:01.751Z,93.65
2019-03-27T05:27:01.839Z,93.75
2019-03-27T05:28:01.934Z,92.90
2019-03-27T05:29:02.019Z,93.46
2019-03-27T05:30:02.124Z,93.37
2019-03-27T05:31:02.214Z,92.80
2019-03-27T05:32:02.304Z,93.18
2019-03-27T05:33:02.392Z,93.27
2019-03-27T05:34:02.482Z,93.27
2019-03-27T05:35:02.566Z,93.65
2019-03-27T05:36:02.689Z,93.84
2019-03-27T05:37:02.756Z,93.75
2019-03-27T05:38:02.849Z,93.08
2019-03-27T05:39:02.936Z,93.08
2019-03-27T05:40:03.030Z,93.37
2019-03-27T05:41:03.115Z,92.61
2019-03-27T05:42:03.204Z,92.90
2019-03-27T05:43:03.291Z,92.90
2019-03-27T05:44:03.385Z,92.42
2019-03-27T05:45:03.475Z,92.51
2019-03-27T05:46:03.578Z,92.23
2019-03-27T05:47:03.662Z,92.04
2019-03-27T05:48:03.744Z,92.23
2019-03-27T05:49:03.835Z,92.13
2019-03-27T05:50:03.923Z,91.85
2019-03-27T05:51:04.020Z,91.56
2019-03-27T05:52:04.106Z,91.66
2019-03-27T05:53:04.191Z,91.38
2019-03-27T05:54:04.276Z,91.28
2019-03-27T05:55:04.378Z,91.66
2019-03-27T05:56:04.464Z,91.19
2019-03-27T05:57:04.592Z,91.28
2019-03-27T05:58:04.681Z,91.28
2019-03-27T05:59:04.761Z,90.90
2019-03-27T06:00:04.854Z,91.56
2019-03-27T06:01:04.938Z,91.38
2019-03-27T06:02:05.029Z,91.75
2019-03-27T06:03:05.116Z,91.85
2019-03-27T06:04:05.196Z,91.66
2019-03-27T06:05:05.285Z,91.85
2019-03-27T06:06:05.410Z,91.09
2019-03-27T06:07:05.461Z,91.19
2019-03-27T06:08:05.536Z,91.75
2019-03-27T06:09:05.678Z,92.13
2019-03-27T06:10:05.765Z,92.23
2019-03-27T06:11:05.854Z,91.85
2019-03-27T06:12:05.944Z,91.75
2019-03-27T06:13:06.033Z,91.94
2019-03-27T06:14:06.121Z,92.13
2019-03-27T06:15:06.210Z,91.94
2019-03-27T06:16:06.301Z,92.61
2019-03-27T06:17:06.393Z,92.32
2019-03-27T06:18:13.011Z,92.90
2019-03-27T06:19:06.599Z,92.51
2019-03-27T06:20:06.759Z,92.51
2019-03-27T06:21:06.779Z,93.27
2019-03-27T06:22:06.861Z,92.71
2019-03-27T06:23:06.949Z,92.90
2019-03-27T06:24:07.040Z,92.61
2019-03-27T06:25:07.130Z,92.90
2019-03-27T06:26:07.222Z,92.51
2019-03-27T06:27:07.303Z,92.13
2019-03-27T06:28:07.391Z,92.32
2019-03-27T06:29:07.494Z,92.42
2019-03-27T06:30:07.576Z,92.71
2019-03-27T06:31:07.665Z,91.75
2019-03-27T06:32:07.753Z,91.85
2019-03-27T06:33:07.842Z,91.80
2019-03-27T06:34:07.931Z,91.71
2019-03-27T06:35:08.020Z,91.80
2019-03-27T06:36:08.111Z,91.42
2019-03-27T06:37:08.197Z,91.33
2019-03-27T06:38:08.307Z,91.42
2019-03-27T06:39:08.401Z,91.13
2019-03-27T06:40:08.482Z,90.75
2019-03-27T06:41:08.585Z,90.28
2019-03-27T06:42:08.675Z,90.00
2019-03-27T06:43:08.782Z,90.00
2019-03-27T06:44:08.840Z,89.23
2019-03-27T06:45:08.929Z,89.23
2019-03-27T06:46:09.019Z,89.33
2019-03-27T06:47:09.094Z,89.42
2019-03-27T06:48:09.203Z,89.52
2019-03-27T06:49:09.289Z,89.23
2019-03-27T06:50:09.376Z,89.42
2019-03-27T06:51:09.481Z,89.56
2019-03-27T06:52:09.589Z,89.61
2019-03-27T06:53:09.669Z,89.33
2019-03-27T06:54:09.755Z,89.23
2019-03-27T06:55:09.842Z,89.42
2019-03-27T06:56:09.931Z,89.28
2019-03-27T06:57:10.024Z,89.04
2019-03-27T06:58:10.113Z,89.04
2019-03-27T06:59:10.200Z,88.90
2019-03-27T07:00:10.298Z,89.00
2019-03-27T07:01:10.377Z,89.09
2019-03-27T07:02:10.469Z,89.28
2019-03-27T07:03:10.549Z,88.80
2019-03-27T07:04:11.094Z,88.61
2019-03-27T07:05:10.756Z,88.80
2019-03-27T07:06:10.801Z,88.33
2019-03-27T07:07:10.896Z,88.33
2019-03-27T07:08:10.981Z,88.04
2019-03-27T07:09:11.070Z,87.47
2019-03-27T07:10:11.161Z,87.76
2019-03-27T07:11:11.254Z,87.47
2019-03-27T07:12:21.128Z,87.19
2019-03-27T07:13:11.459Z,86.80
2019-03-27T07:14:11.513Z,86.24
2019-03-27T07:15:11.604Z,86.61
2019-03-27T07:16:11.690Z,86.71
2019-03-27T07:17:11.779Z,86.71
2019-03-27T07:18:11.879Z,86.71
2019-03-27T07:19:11.959Z,85.71
2019-03-27T07:20:12.049Z,86.05
2019-03-27T07:21:12.139Z,86.24
2019-03-27T07:22:12.231Z,85.99
2019-03-27T07:23:12.321Z,85.76
2019-03-27T07:24:12.412Z,85.42
2019-03-27T07:25:12.506Z,85.24
2019-03-27T07:26:12.577Z,85.42
2019-03-27T07:27:12.675Z,85.42
2019-03-27T07:28:12.762Z,84.56
2019-03-27T07:29:12.852Z,85.04
2019-03-27T07:30:12.944Z,84.56
2019-03-27T07:31:13.033Z,84.76
2019-03-27T07:32:13.122Z,84.95
2019-03-27T07:33:13.225Z,85.24
2019-03-27T07:34:13.302Z,84.85
2019-03-27T07:35:13.395Z,84.76
2019-03-27T07:36:13.488Z,85.14
2019-03-27T07:37:13.601Z,85.14
2019-03-27T07:38:13.712Z,85.14
2019-03-27T07:39:13.796Z,84.95
2019-03-27T07:40:13.887Z,85.04
2019-03-27T07:41:13.975Z,85.24
2019-03-27T07:42:14.074Z,84.66
2019-03-27T07:43:14.164Z,84.76
2019-03-27T07:44:14.251Z,84.95
2019-03-27T07:45:14.345Z,85.04
2019-03-27T07:46:14.437Z,85.14
2019-03-27T07:47:14.524Z,85.04
2019-03-27T07:48:14.620Z,84.95
2019-03-27T07:49:14.720Z,84.76
2019-03-27T07:50:14.795Z,84.76
2019-03-27T07:51:14.883Z,84.66
2019-03-27T07:52:14.972Z,84.66
2019-03-27T07:53:15.071Z,85.24
2019-03-27T07:54:15.151Z,85.33
2019-03-27T07:55:19.750Z,85.80
2019-03-27T07:56:15.340Z,85.42
2019-03-27T07:57:15.503Z,85.33
2019-03-27T07:58:15.612Z,85.14
2019-03-27T07:59:15.644Z,84.85
2019-03-27T08:00:15.734Z,85.14
2019-03-27T08:01:15.822Z,85.28
2019-03-27T08:02:15.912Z,85.56
2019-03-27T08:03:16.000Z,84.99
2019-03-27T08:04:16.092Z,83.94
2019-03-27T08:05:16.184Z,83.47
2019-03-27T08:06:16.269Z,83.94
2019-03-27T08:07:26.294Z,84.13
2019-03-27T08:08:16.445Z,83.47
2019-03-27T08:09:16.530Z,83.37
2019-03-27T08:10:16.624Z,83.47
2019-03-27T08:11:16.749Z,82.90
2019-03-27T08:12:16.813Z,82.80
2019-03-27T08:13:16.897Z,82.61
2019-03-27T08:14:16.991Z,82.80
2019-03-27T08:15:17.078Z,82.23
2019-03-27T08:16:17.174Z,82.51
2019-03-27T08:17:17.263Z,82.08
2019-03-27T08:18:17.351Z,82.23
2019-03-27T08:19:17.444Z,81.47
2019-03-27T08:20:17.551Z,81.47
2019-03-27T08:21:17.636Z,81.56
2019-03-27T08:22:17.721Z,81.85
2019-03-27T08:23:17.830Z,82.04
2019-03-27T08:24:17.899Z,81.85
2019-03-27T08:25:18.082Z,81.79
2019-03-27T08:26:18.080Z,81.70
2019-03-27T08:27:18.171Z,81.66
2019-03-27T08:28:18.262Z,81.56
2019-03-27T08:29:18.352Z,82.51
2019-03-27T08:30:18.440Z,82.18
2019-03-27T08:31:18.527Z,82.27
2019-03-27T08:32:18.607Z,81.98
2019-03-27T08:33:18.714Z,81.79
2019-03-27T08:34:18.797Z,82.51
2019-03-27T08:35:18.885Z,81.47
2019-03-27T08:36:18.976Z,81.89
2019-03-27T08:37:19.066Z,81.89
2019-03-27T08:38:19.160Z,81.41
2019-03-27T08:39:19.248Z,81.23
2019-03-27T08:40:19.336Z,80.94
2019-03-27T08:41:19.437Z,80.65
2019-03-27T08:42:19.517Z,80.94
2019-03-27T08:43:21.897Z,81.03
2019-03-27T08:44:19.697Z,81.23
2019-03-27T08:45:19.817Z,81.74
2019-03-27T08:46:19.891Z,81.26
2019-03-27T08:47:19.982Z,80.60
2019-03-27T08:48:20.074Z,79.74
2019-03-27T08:49:22.114Z,79.64
2019-03-27T08:50:20.256Z,79.83
2019-03-27T08:51:20.345Z,80.12
2019-03-27T08:52:20.430Z,80.02
2019-03-27T08:53:20.516Z,79.83
2019-03-27T08:54:20.716Z,79.36
2019-03-27T08:55:20.723Z,79.27
2019-03-27T08:56:20.901Z,78.54
2019-03-27T08:57:20.891Z,78.73
2019-03-27T08:58:20.983Z,78.64
2019-03-27T08:59:21.074Z,78.16
2019-03-27T09:00:21.496Z,77.97
2019-03-27T09:01:21.256Z,78.35
2019-03-27T09:02:21.346Z,78.44
2019-03-27T09:03:21.437Z,77.40
2019-03-27T09:04:21.540Z,77.11
2019-03-27T09:05:21.620Z,76.92
2019-03-27T09:06:33.003Z,76.92
2019-03-27T09:07:21.800Z,76.86
2019-03-27T09:08:21.895Z,76.67
2019-03-27T09:09:21.989Z,76.39
2019-03-27T09:10:22.080Z,75.72
2019-03-27T09:11:22.188Z,76.01
2019-03-27T09:12:22.252Z,75.72
2019-03-27T09:13:22.341Z,74.86
2019-03-27T09:14:22.433Z,75.15
2019-03-27T09:15:22.552Z,75.62
2019-03-27T09:16:22.616Z,76.01
2019-03-27T09:17:22.704Z,76.48
2019-03-27T09:18:22.796Z,75.72
2019-03-27T09:19:35.125Z,75.72
2019-03-27T09:20:22.976Z,75.62
2019-03-27T09:21:23.070Z,75.43
2019-03-27T09:22:23.160Z,75.43
2019-03-27T09:23:23.260Z,74.99
2019-03-27T09:24:23.351Z,75.24
2019-03-27T09:25:23.457Z,75.24
2019-03-27T09:26:23.530Z,75.18
2019-03-27T09:27:23.621Z,75.18
2019-03-27T09:28:23.716Z,74.80
2019-03-27T09:29:23.806Z,74.61
2019-03-27T09:30:23.893Z,74.04
2019-03-27T09:31:23.983Z,73.56
2019-03-27T09:32:24.075Z,72.03
2019-03-27T09:33:24.169Z,71.27
2019-03-27T09:34:24.261Z,70.98
2019-03-27T09:35:24.353Z,71.08
2019-03-27T09:36:24.445Z,69.93
2019-03-27T09:37:24.540Z,68.32
2019-03-27T09:38:24.636Z,67.17
2019-03-27T09:39:24.727Z,67.07
2019-03-27T09:40:24.818Z,66.12
2019-03-27T09:41:24.911Z,65.87
2019-03-27T09:42:25.003Z,65.83
2019-03-27T09:43:25.099Z,65.74
2019-03-27T09:44:25.188Z,66.94
2019-03-27T09:45:25.284Z,67.71
2019-03-27T09:46:25.377Z,69.04
2019-03-27T09:47:25.482Z,67.14
2019-03-27T09:48:25.605Z,66.09
2019-03-27T09:49:25.666Z,65.45
2019-03-27T09:50:25.754Z,64.88
2019-03-27T09:51:25.844Z,65.07
2019-03-27T09:52:25.937Z,62.59
2019-03-27T09:53:26.041Z,62.68
2019-03-27T09:54:26.129Z,62.78
2019-03-27T09:55:26.227Z,62.88
2019-03-27T09:56:26.318Z,62.59
2019-03-27T09:57:26.410Z,62.97
2019-03-27T09:58:26.504Z,62.34
2019-03-27T09:59:26.579Z,62.05
2019-03-27T10:00:26.698Z,61.95
2019-03-27T10:01:26.779Z,61.38
2019-03-27T10:02:26.875Z,60.17
2019-03-27T10:03:26.966Z,59.12
2019-03-27T10:04:27.062Z,58.93
2019-03-27T10:05:27.152Z,59.69
2019-03-27T10:06:27.248Z,58.51
2019-03-27T10:07:27.342Z,58.04
2019-03-27T10:08:27.443Z,59.28
2019-03-27T10:09:27.535Z,60.42
2019-03-27T10:10:27.614Z,61.47
2019-03-27T10:11:27.716Z,61.29
2019-03-27T10:12:27.807Z,61.38
2019-03-27T10:13:27.900Z,61.22
2019-03-27T10:14:27.992Z,60.17
2019-03-27T10:15:28.088Z,59.02
2019-03-27T10:16:28.171Z,58.73
2019-03-27T10:17:28.264Z,57.68
2019-03-27T10:18:28.360Z,57.87
2019-03-27T10:19:28.451Z,57.50
2019-03-27T10:20:28.546Z,57.11
2019-03-27T10:21:28.645Z,57.90
2019-03-27T10:22:28.757Z,58.00
2019-03-27T10:23:28.909Z,57.62
2019-03-27T10:24:28.888Z,56.57
2019-03-27T10:25:28.960Z,56.57
2019-03-27T10:26:29.055Z,56.18
2019-03-27T10:27:29.145Z,55.99
2019-03-27T10:28:29.241Z,55.80
2019-03-27T10:29:29.335Z,55.93
2019-03-27T10:30:29.451Z,56.40
2019-03-27T10:31:29.519Z,56.79
2019-03-27T10:32:29.597Z,56.50
2019-03-27T10:33:29.683Z,55.74
2019-03-27T10:34:29.779Z,55.35
2019-03-27T10:35:29.874Z,55.45
2019-03-27T10:36:29.958Z,56.02
2019-03-27T10:37:30.050Z,55.71
2019-03-27T10:38:30.145Z,56.45
2019-03-27T10:39:30.236Z,57.40
2019-03-27T10:40:30.325Z,57.59
2019-03-27T10:41:30.418Z,56.82
2019-03-27T10:42:30.513Z,57.33
2019-03-27T10:43:30.607Z,56.95
2019-03-27T10:44:30.908Z,57.11
2019-03-27T10:45:30.906Z,57.62
2019-03-27T10:46:30.907Z,56.85
2019-03-27T10:47:31.005Z,55.99
2019-03-27T10:48:31.100Z,55.23
2019-03-27T10:49:34.243Z,54.56
2019-03-27T10:50:31.286Z,55.42
2019-03-27T10:51:31.383Z,55.71
2019-03-27T10:52:31.479Z,55.42
2019-03-27T10:53:31.575Z,54.47
2019-03-27T10:54:31.665Z,54.37
2019-03-27T10:55:34.534Z,55.45
2019-03-27T10:56:31.853Z,54.59
2019-03-27T10:57:31.949Z,54.68
2019-03-27T10:58:32.044Z,54.21
2019-03-27T10:59:32.139Z,54.30
2019-03-27T11:00:32.231Z,53.63
2019-03-27T11:01:32.336Z,52.89
2019-03-27T11:02:32.419Z,52.77
2019-03-27T11:03:32.513Z,53.16
2019-03-27T11:04:32.608Z,53.16
2019-03-27T11:05:32.737Z,53.28
2019-03-27T11:06:32.783Z,53.18
2019-03-27T11:07:32.893Z,52.96
2019-03-27T11:08:32.989Z,53.16
2019-03-27T11:09:33.085Z,53.25
2019-03-27T11:10:33.181Z,52.96
2019-03-27T11:11:33.276Z,52.39
2019-03-27T11:12:33.368Z,52.10
2019-03-27T11:13:34.516Z,52.10
2019-03-27T11:14:38.191Z,52.39
2019-03-27T11:15:33.668Z,51.53
2019-03-27T11:16:33.766Z,51.34
2019-03-27T11:17:33.864Z,51.24
2019-03-27T11:18:33.960Z,50.86
2019-03-27T11:19:34.055Z,51.15
2019-03-27T11:20:34.149Z,51.34
2019-03-27T11:21:34.243Z,50.93
2019-03-27T11:22:34.338Z,50.90
2019-03-27T11:23:34.433Z,52.03
2019-03-27T11:24:34.530Z,52.57
2019-03-27T11:25:34.628Z,54.48
2019-03-27T11:26:34.708Z,54.17
2019-03-27T11:27:34.834Z,54.07
2019-03-27T11:28:34.887Z,54.67
2019-03-27T11:29:34.983Z,55.05
2019-03-27T11:30:35.077Z,54.38
2019-03-27T11:31:35.171Z,54.79
2019-03-27T11:32:35.269Z,54.22
2019-03-27T11:33:35.360Z,54.03
2019-03-27T11:34:35.480Z,53.20
2019-03-27T11:35:35.541Z,52.43
2019-03-27T11:36:35.630Z,51.09
2019-03-27T11:37:35.723Z,50.64
2019-03-27T11:38:37.465Z,50.33
2019-03-27T11:39:35.911Z,50.59
2019-03-27T11:40:36.007Z,51.35
2019-03-27T11:41:36.099Z,52.03
2019-03-27T11:42:36.199Z,52.09
2019-03-27T11:43:36.286Z,52.38
2019-03-27T11:44:36.381Z,53.08
2019-03-27T11:45:36.468Z,54.03
2019-03-27T11:46:36.556Z,54.03
2019-03-27T11:47:36.748Z,54.06
2019-03-27T11:48:36.764Z,53.20
2019-03-27T11:49:36.836Z,53.39
2019-03-27T11:50:44.924Z,52.84
2019-03-27T11:51:37.034Z,51.98
2019-03-27T11:52:37.127Z,51.21
2019-03-27T11:53:37.224Z,50.33
2019-03-27T11:54:37.315Z,50.43
2019-03-27T11:55:37.417Z,50.52
2019-03-27T11:56:37.521Z,51.09
2019-03-27T11:57:37.611Z,51.29
2019-03-27T11:58:37.666Z,50.33
2019-03-27T11:59:37.762Z,50.62
2019-03-27T12:00:37.862Z,50.93
2019-03-27T12:01:42.090Z,50.62
2019-03-27T12:02:38.044Z,50.81
2019-03-27T12:03:38.139Z,51.48
2019-03-27T12:04:38.255Z,51.38
2019-03-27T12:05:38.346Z,51.29
2019-03-27T12:06:38.440Z,50.81
2019-03-27T12:07:38.533Z,51.35
2019-03-27T12:08:38.631Z,51.57
2019-03-27T12:09:38.728Z,51.95
2019-03-27T12:10:38.820Z,52.05
2019-03-27T12:11:38.917Z,52.05
2019-03-27T12:12:39.010Z,51.48
2019-03-27T12:13:39.104Z,51.31
2019-03-27T12:14:39.199Z,50.35
2019-03-27T12:15:39.296Z,50.48
2019-03-27T12:16:39.387Z,50.38
2019-03-27T12:17:39.503Z,48.75
2019-03-27T12:18:39.575Z,48.11
2019-03-27T12:19:39.666Z,47.44
2019-03-27T12:20:39.758Z,47.82
2019-03-27T12:21:39.851Z,48.21
2019-03-27T12:22:39.945Z,48.49
2019-03-27T12:23:40.082Z,47.94
2019-03-27T12:24:40.146Z,47.06
2019-03-27T12:25:40.242Z,46.67
2019-03-27T12:26:40.335Z,47.23
2019-03-27T12:27:40.426Z,47.71
2019-03-27T12:28:40.519Z,47.61
2019-03-27T12:29:40.662Z,47.99
2019-03-27T12:30:40.799Z,47.99
2019-03-27T12:31:40.851Z,48.54
2019-03-27T12:32:40.946Z,49.40
2019-03-27T12:33:41.037Z,50.35
2019-03-27T12:34:41.152Z,50.33
2019-03-27T12:35:41.259Z,50.90
2019-03-27T12:36:41.343Z,51.48
2019-03-27T12:37:41.469Z,51.57
2019-03-27T12:38:41.544Z,52.12
2019-03-27T12:39:41.649Z,50.98
2019-03-27T12:40:41.742Z,51.35
2019-03-27T12:41:41.837Z,52.15
2019-03-27T12:42:41.930Z,51.19
2019-03-27T12:43:42.026Z,50.52
2019-03-27T12:44:42.119Z,51.19
2019-03-27T12:45:42.217Z,51.19
2019-03-27T12:46:42.306Z,50.71
2019-03-27T12:47:42.406Z,50.14
2019-03-27T12:48:42.497Z,50.52
2019-03-27T12:49:42.599Z,50.43
2019-03-27T12:50:44.376Z,50.62
2019-03-27T12:51:42.825Z,51.09
2019-03-27T12:52:42.922Z,50.49
2019-03-27T12:53:43.004Z,50.62
2019-03-27T12:54:43.099Z,51.17
2019-03-27T12:55:43.194Z,51.86
2019-03-27T12:56:43.288Z,51.26